sensor_id;sensor_type;location;lat;lon;timestamp;pressure;altitude;pressure_sealevel;temperature;humidity
25526;BME280;13424;48.424;11.258;2023-01-28T00:01:15;95946.25;;;2.87;74.76
25526;BME280;13424;48.424;11.258;2023-01-28T00:03:45;95944.53;;;2.79;75.45
25526;BME280;13424;48.424;11.258;2023-01-28T00:06:14;95931.63;;;2.55;75.94
25526;BME280;13424;48.424;11.258;2023-01-28T00:08:41;95930.06;;;2.31;75.91
25526;BME280;13424;48.424;11.258;2023-01-28T00:11:10;95940.16;;;2.42;75.60
25526;BME280;13424;48.424;11.258;2023-01-28T00:13:36;95936.72;;;2.71;74.44
25526;BME280;13424;48.424;11.258;2023-01-28T00:16:05;95927.72;;;2.65;75.47
25526;BME280;13424;48.424;11.258;2023-01-28T00:18:32;95931.63;;;2.40;75.27
25526;BME280;13424;48.424;11.258;2023-01-28T00:21:04;95928.72;;;2.49;75.10
25526;BME280;13424;48.424;11.258;2023-01-28T00:23:34;95931.88;;;2.60;74.67
25526;BME280;13424;48.424;11.258;2023-01-28T00:26:02;95940.88;;;2.80;74.77
25526;BME280;13424;48.424;11.258;2023-01-28T00:28:28;95939.59;;;2.76;74.59
25526;BME280;13424;48.424;11.258;2023-01-28T00:30:54;95937.34;;;2.58;74.99
25526;BME280;13424;48.424;11.258;2023-01-28T00:33:20;95933.81;;;2.66;74.47
25526;BME280;13424;48.424;11.258;2023-01-28T00:35:46;95930.72;;;2.47;75.42
25526;BME280;13424;48.424;11.258;2023-01-28T00:38:12;95936.53;;;2.58;75.55
25526;BME280;13424;48.424;11.258;2023-01-28T00:40:38;95930.97;;;2.52;75.63
25526;BME280;13424;48.424;11.258;2023-01-28T00:43:06;95931.59;;;2.84;74.18
25526;BME280;13424;48.424;11.258;2023-01-28T00:45:32;95929.63;;;2.86;74.16
25526;BME280;13424;48.424;11.258;2023-01-28T00:47:58;95926.63;;;2.60;75.19
25526;BME280;13424;48.424;11.258;2023-01-28T00:50:23;95923.34;;;2.72;73.97
25526;BME280;13424;48.424;11.258;2023-01-28T00:52:52;95923.78;;;2.91;73.88
25526;BME280;13424;48.424;11.258;2023-01-28T00:55:26;95928.72;;;2.79;73.68
25526;BME280;13424;48.424;11.258;2023-01-28T00:57:53;95931.16;;;2.66;74.37
25526;BME280;13424;48.424;11.258;2023-01-28T01:00:19;95934.53;;;2.60;73.99
25526;BME280;13424;48.424;11.258;2023-01-28T01:02:50;95937.63;;;2.78;73.59
25526;BME280;13424;48.424;11.258;2023-01-28T01:05:16;95944.13;;;2.52;74.15
25526;BME280;13424;48.424;11.258;2023-01-28T01:07:42;95944.31;;;2.36;75.40
25526;BME280;13424;48.424;11.258;2023-01-28T01:10:15;95937.44;;;2.65;75.01
25526;BME280;13424;48.424;11.258;2023-01-28T01:12:42;95941.78;;;2.58;75.23
25526;BME280;13424;48.424;11.258;2023-01-28T01:19:47;95948.69;;;2.59;74.62
25526;BME280;13424;48.424;11.258;2023-01-28T01:22:13;95956.50;;;2.67;74.98
25526;BME280;13424;48.424;11.258;2023-01-28T01:24:40;95946.41;;;2.26;75.69
25526;BME280;13424;48.424;11.258;2023-01-28T01:27:06;95955.50;;;2.38;75.22
25526;BME280;13424;48.424;11.258;2023-01-28T01:29:32;95960.03;;;2.59;74.46
25526;BME280;13424;48.424;11.258;2023-01-28T01:31:59;95951.91;;;2.16;75.81
25526;BME280;13424;48.424;11.258;2023-01-28T01:34:25;95952.22;;;2.51;74.54
25526;BME280;13424;48.424;11.258;2023-01-28T01:36:51;95956.75;;;2.28;75.74
25526;BME280;13424;48.424;11.258;2023-01-28T01:39:16;95957.47;;;2.21;75.83
25526;BME280;13424;48.424;11.258;2023-01-28T01:41:45;95952.28;;;2.28;75.94
25526;BME280;13424;48.424;11.258;2023-01-28T01:44:59;95956.06;;;2.48;75.51
25526;BME280;13424;48.424;11.258;2023-01-28T01:50:10;95961.13;;;2.50;74.91
25526;BME280;13424;48.424;11.258;2023-01-28T01:52:42;95962.94;;;2.49;74.33
25526;BME280;13424;48.424;11.258;2023-01-28T01:55:14;95966.50;;;2.71;73.87
25526;BME280;13424;48.424;11.258;2023-01-28T01:57:41;95967.84;;;2.67;74.33
25526;BME280;13424;48.424;11.258;2023-01-28T02:00:09;95969.41;;;2.62;74.58
25526;BME280;13424;48.424;11.258;2023-01-28T02:02:45;95963.94;;;2.48;74.72
25526;BME280;13424;48.424;11.258;2023-01-28T02:05:14;95963.69;;;2.58;74.83
25526;BME280;13424;48.424;11.258;2023-01-28T02:07:41;95961.28;;;2.34;75.40
25526;BME280;13424;48.424;11.258;2023-01-28T02:10:08;95968.28;;;2.41;74.91
25526;BME280;13424;48.424;11.258;2023-01-28T02:12:47;95966.28;;;2.43;75.22
25526;BME280;13424;48.424;11.258;2023-01-28T02:15:20;95973.66;;;2.48;75.97
25526;BME280;13424;48.424;11.258;2023-01-28T02:28:17;95976.00;;;2.43;74.93
25526;BME280;13424;48.424;11.258;2023-01-28T02:31:17;95969.22;;;2.48;74.44
25526;BME280;13424;48.424;11.258;2023-01-28T02:39:46;95975.75;;;2.82;73.20
25526;BME280;13424;48.424;11.258;2023-01-28T02:42:20;95970.13;;;2.56;74.40
25526;BME280;13424;48.424;11.258;2023-01-28T02:44:48;95984.56;;;2.60;73.98
25526;BME280;13424;48.424;11.258;2023-01-28T02:47:14;95981.22;;;2.80;73.45
25526;BME280;13424;48.424;11.258;2023-01-28T02:50:11;95990.47;;;2.91;73.66
25526;BME280;13424;48.424;11.258;2023-01-28T02:53:23;95988.44;;;2.34;74.71
25526;BME280;13424;48.424;11.258;2023-01-28T02:56:33;95990.03;;;2.06;75.60
25526;BME280;13424;48.424;11.258;2023-01-28T02:59:38;95989.47;;;2.48;74.71
25526;BME280;13424;48.424;11.258;2023-01-28T03:05:40;95990.72;;;2.52;74.54
25526;BME280;13424;48.424;11.258;2023-01-28T03:08:15;95990.28;;;2.48;75.07
25526;BME280;13424;48.424;11.258;2023-01-28T03:11:04;95991.81;;;2.43;74.77
25526;BME280;13424;48.424;11.258;2023-01-28T03:13:51;95991.19;;;2.41;75.69
25526;BME280;13424;48.424;11.258;2023-01-28T03:16:35;95991.13;;;2.78;73.63
25526;BME280;13424;48.424;11.258;2023-01-28T03:19:20;95994.03;;;2.54;74.78
25526;BME280;13424;48.424;11.258;2023-01-28T03:22:26;95992.84;;;2.57;75.04
25526;BME280;13424;48.424;11.258;2023-01-28T03:25:14;95989.22;;;2.87;73.34
25526;BME280;13424;48.424;11.258;2023-01-28T03:28:04;95992.66;;;2.73;73.70
25526;BME280;13424;48.424;11.258;2023-01-28T03:31:10;95993.78;;;2.93;73.23
25526;BME280;13424;48.424;11.258;2023-01-28T03:33:59;95992.28;;;3.05;72.92
25526;BME280;13424;48.424;11.258;2023-01-28T03:36:45;95996.66;;;2.98;73.11
25526;BME280;13424;48.424;11.258;2023-01-28T03:39:34;95995.22;;;2.14;76.50
25526;BME280;13424;48.424;11.258;2023-01-28T03:42:09;95997.00;;;2.66;75.00
25526;BME280;13424;48.424;11.258;2023-01-28T03:45:10;95998.03;;;2.79;74.45
25526;BME280;13424;48.424;11.258;2023-01-28T03:47:36;96004.56;;;2.54;74.63
25526;BME280;13424;48.424;11.258;2023-01-28T03:50:05;96003.28;;;2.65;74.15
25526;BME280;13424;48.424;11.258;2023-01-28T03:52:37;96008.00;;;2.17;75.37
25526;BME280;13424;48.424;11.258;2023-01-28T03:55:16;96008.09;;;2.76;74.15
25526;BME280;13424;48.424;11.258;2023-01-28T03:57:42;96005.94;;;2.94;73.17
25526;BME280;13424;48.424;11.258;2023-01-28T04:00:11;96013.47;;;2.83;72.81
25526;BME280;13424;48.424;11.258;2023-01-28T04:06:27;96014.00;;;2.63;73.36
25526;BME280;13424;48.424;11.258;2023-01-28T04:09:16;96015.38;;;2.74;73.62
25526;BME280;13424;48.424;11.258;2023-01-28T04:12:03;96019.72;;;2.82;73.31
25526;BME280;13424;48.424;11.258;2023-01-28T04:14:47;96019.00;;;2.73;73.63
25526;BME280;13424;48.424;11.258;2023-01-28T04:17:19;96020.66;;;2.89;73.54
25526;BME280;13424;48.424;11.258;2023-01-28T04:19:45;96021.66;;;2.88;73.78
25526;BME280;13424;48.424;11.258;2023-01-28T04:22:13;96024.44;;;2.19;75.65
25526;BME280;13424;48.424;11.258;2023-01-28T04:24:42;96028.16;;;2.47;74.40
25526;BME280;13424;48.424;11.258;2023-01-28T04:27:08;96029.09;;;2.84;73.18
25526;BME280;13424;48.424;11.258;2023-01-28T04:29:34;96026.22;;;3.08;72.67
25526;BME280;13424;48.424;11.258;2023-01-28T04:32:18;96034.75;;;2.96;73.16
25526;BME280;13424;48.424;11.258;2023-01-28T04:35:04;96028.00;;;2.64;74.48
25526;BME280;13424;48.424;11.258;2023-01-28T04:37:53;96041.03;;;3.10;73.12
25526;BME280;13424;48.424;11.258;2023-01-28T04:40:28;96039.38;;;3.08;72.74
25526;BME280;13424;48.424;11.258;2023-01-28T04:42:57;96032.78;;;2.45;74.52
25526;BME280;13424;48.424;11.258;2023-01-28T04:45:30;96040.66;;;2.98;73.81
25526;BME280;13424;48.424;11.258;2023-01-28T04:48:12;96038.47;;;3.01;72.82
25526;BME280;13424;48.424;11.258;2023-01-28T04:50:53;96041.94;;;3.17;72.46
25526;BME280;13424;48.424;11.258;2023-01-28T04:53:33;96047.28;;;3.23;72.41
25526;BME280;13424;48.424;11.258;2023-01-28T04:56:05;96049.03;;;3.01;73.12
25526;BME280;13424;48.424;11.258;2023-01-28T04:58:34;96053.00;;;2.97;73.30
25526;BME280;13424;48.424;11.258;2023-01-28T05:01:04;96050.09;;;2.92;73.60
25526;BME280;13424;48.424;11.258;2023-01-28T05:03:32;96051.75;;;2.93;73.56
25526;BME280;13424;48.424;11.258;2023-01-28T05:05:58;96061.53;;;2.99;72.67
25526;BME280;13424;48.424;11.258;2023-01-28T05:08:42;96054.09;;;2.88;73.68
25526;BME280;13424;48.424;11.258;2023-01-28T05:11:08;96058.53;;;2.88;73.02
25526;BME280;13424;48.424;11.258;2023-01-28T05:13:34;96060.63;;;2.92;73.32
25526;BME280;13424;48.424;11.258;2023-01-28T05:16:00;96058.66;;;2.94;73.11
25526;BME280;13424;48.424;11.258;2023-01-28T05:18:26;96065.84;;;3.00;72.84
25526;BME280;13424;48.424;11.258;2023-01-28T05:21:05;96069.72;;;3.04;73.04
25526;BME280;13424;48.424;11.258;2023-01-28T05:23:34;96066.09;;;3.05;73.15
25526;BME280;13424;48.424;11.258;2023-01-28T05:26:00;96065.88;;;2.92;73.56
25526;BME280;13424;48.424;11.258;2023-01-28T05:28:25;96064.25;;;2.91;73.94
25526;BME280;13424;48.424;11.258;2023-01-28T05:30:51;96071.16;;;2.92;73.37
25526;BME280;13424;48.424;11.258;2023-01-28T05:33:17;96065.28;;;2.52;74.79
25526;BME280;13424;48.424;11.258;2023-01-28T05:35:43;96073.75;;;3.00;73.00
25526;BME280;13424;48.424;11.258;2023-01-28T05:38:09;96075.91;;;3.12;72.30
25526;BME280;13424;48.424;11.258;2023-01-28T05:40:35;96069.97;;;2.42;75.78
25526;BME280;13424;48.424;11.258;2023-01-28T05:43:10;96075.38;;;2.49;75.23
25526;BME280;13424;48.424;11.258;2023-01-28T05:45:40;96076.34;;;2.86;73.89
25526;BME280;13424;48.424;11.258;2023-01-28T05:48:17;96072.78;;;2.64;74.27
25526;BME280;13424;48.424;11.258;2023-01-28T05:51:04;96069.50;;;2.62;75.05
25526;BME280;13424;48.424;11.258;2023-01-28T05:53:44;96081.09;;;2.52;74.64
25526;BME280;13424;48.424;11.258;2023-01-28T05:56:10;96077.09;;;2.94;74.44
25526;BME280;13424;48.424;11.258;2023-01-28T05:58:37;96081.16;;;2.82;74.50
25526;BME280;13424;48.424;11.258;2023-01-28T06:01:06;96074.81;;;2.91;73.98
25526;BME280;13424;48.424;11.258;2023-01-28T06:03:40;96074.91;;;2.98;73.55
25526;BME280;13424;48.424;11.258;2023-01-28T06:06:06;96076.69;;;2.83;74.51
25526;BME280;13424;48.424;11.258;2023-01-28T06:08:32;96087.25;;;2.97;73.67
25526;BME280;13424;48.424;11.258;2023-01-28T06:10:58;96081.91;;;3.05;73.33
25526;BME280;13424;48.424;11.258;2023-01-28T06:13:24;96084.13;;;3.17;72.92
25526;BME280;13424;48.424;11.258;2023-01-28T06:16:09;96081.69;;;2.92;73.48
25526;BME280;13424;48.424;11.258;2023-01-28T06:19:04;96082.63;;;2.99;73.57
25526;BME280;13424;48.424;11.258;2023-01-28T06:21:30;96086.81;;;2.94;73.69
25526;BME280;13424;48.424;11.258;2023-01-28T06:24:00;96094.47;;;3.03;73.69
25526;BME280;13424;48.424;11.258;2023-01-28T06:26:26;96092.81;;;3.02;74.56
25526;BME280;13424;48.424;11.258;2023-01-28T06:28:53;96094.09;;;3.06;73.37
25526;BME280;13424;48.424;11.258;2023-01-28T06:36:18;96107.78;;;2.87;74.38
25526;BME280;13424;48.424;11.258;2023-01-28T06:38:43;96099.34;;;2.77;74.54
25526;BME280;13424;48.424;11.258;2023-01-28T06:41:09;96104.09;;;2.59;74.92
25526;BME280;13424;48.424;11.258;2023-01-28T06:43:35;96111.34;;;2.94;73.61
25526;BME280;13424;48.424;11.258;2023-01-28T06:46:10;96119.63;;;3.06;73.28
25526;BME280;13424;48.424;11.258;2023-01-28T06:48:35;96122.00;;;3.16;72.72
25526;BME280;13424;48.424;11.258;2023-01-28T06:51:01;96134.38;;;3.45;71.84
25526;BME280;13424;48.424;11.258;2023-01-28T06:53:27;96135.84;;;3.32;72.29
25526;BME280;13424;48.424;11.258;2023-01-28T06:55:53;96133.47;;;3.38;72.13
25526;BME280;13424;48.424;11.258;2023-01-28T06:58:18;96136.91;;;3.23;72.29
25526;BME280;13424;48.424;11.258;2023-01-28T07:00:44;96140.75;;;3.35;72.52
25526;BME280;13424;48.424;11.258;2023-01-28T07:03:10;96143.75;;;3.18;72.85
25526;BME280;13424;48.424;11.258;2023-01-28T07:05:36;96139.72;;;3.22;72.34
25526;BME280;13424;48.424;11.258;2023-01-28T07:08:02;96146.94;;;3.28;72.53
25526;BME280;13424;48.424;11.258;2023-01-28T07:10:28;96142.56;;;3.20;73.37
25526;BME280;13424;48.424;11.258;2023-01-28T07:12:54;96151.09;;;3.37;72.21
25526;BME280;13424;48.424;11.258;2023-01-28T07:15:20;96147.09;;;3.12;73.43
25526;BME280;13424;48.424;11.258;2023-01-28T07:18:23;96143.47;;;3.27;72.95
25526;BME280;13424;48.424;11.258;2023-01-28T07:20:51;96158.75;;;3.47;72.21
25526;BME280;13424;48.424;11.258;2023-01-28T07:23:17;96160.97;;;3.05;74.01
25526;BME280;13424;48.424;11.258;2023-01-28T07:25:43;96155.38;;;3.38;72.80
25526;BME280;13424;48.424;11.258;2023-01-28T07:31:47;96154.38;;;3.39;72.40
25526;BME280;13424;48.424;11.258;2023-01-28T07:34:13;96163.13;;;3.25;73.01
25526;BME280;13424;48.424;11.258;2023-01-28T07:36:39;96168.19;;;3.12;73.41
25526;BME280;13424;48.424;11.258;2023-01-28T07:39:05;96165.16;;;3.15;73.38
25526;BME280;13424;48.424;11.258;2023-01-28T07:41:32;96171.47;;;2.91;74.35
25526;BME280;13424;48.424;11.258;2023-01-28T07:44:04;96172.22;;;2.99;74.33
25526;BME280;13424;48.424;11.258;2023-01-28T07:46:30;96172.91;;;3.01;73.57
25526;BME280;13424;48.424;11.258;2023-01-28T07:48:57;96178.19;;;3.16;73.28
25526;BME280;13424;48.424;11.258;2023-01-28T07:51:22;96176.31;;;3.25;72.83
25526;BME280;13424;48.424;11.258;2023-01-28T07:53:48;96172.31;;;3.44;72.36
25526;BME280;13424;48.424;11.258;2023-01-28T08:00:22;96181.41;;;3.41;72.30
25526;BME280;13424;48.424;11.258;2023-01-28T08:02:49;96183.66;;;3.29;72.01
25526;BME280;13424;48.424;11.258;2023-01-28T08:05:20;96185.91;;;3.18;72.44
25526;BME280;13424;48.424;11.258;2023-01-28T08:07:46;96188.31;;;3.42;73.05
25526;BME280;13424;48.424;11.258;2023-01-28T08:10:16;96196.59;;;3.54;72.48
25526;BME280;13424;48.424;11.258;2023-01-28T08:12:56;96193.31;;;3.37;73.13
25526;BME280;13424;48.424;11.258;2023-01-28T08:15:25;96194.44;;;3.72;71.35
25526;BME280;13424;48.424;11.258;2023-01-28T08:17:56;96203.97;;;3.58;72.21
25526;BME280;13424;48.424;11.258;2023-01-28T08:20:24;96199.31;;;3.46;72.67
25526;BME280;13424;48.424;11.258;2023-01-28T08:22:50;96203.97;;;3.58;71.39
25526;BME280;13424;48.424;11.258;2023-01-28T08:25:16;96206.97;;;3.70;71.96
25526;BME280;13424;48.424;11.258;2023-01-28T08:27:41;96203.16;;;3.73;71.36
25526;BME280;13424;48.424;11.258;2023-01-28T08:30:08;96210.16;;;3.66;71.32
25526;BME280;13424;48.424;11.258;2023-01-28T08:32:35;96211.00;;;3.66;71.20
25526;BME280;13424;48.424;11.258;2023-01-28T08:35:03;96204.41;;;3.62;71.97
25526;BME280;13424;48.424;11.258;2023-01-28T08:37:29;96205.91;;;3.64;71.21
25526;BME280;13424;48.424;11.258;2023-01-28T08:39:55;96208.06;;;3.61;70.91
25526;BME280;13424;48.424;11.258;2023-01-28T08:42:21;96206.44;;;3.60;71.64
25526;BME280;13424;48.424;11.258;2023-01-28T08:44:47;96207.59;;;3.87;71.06
25526;BME280;13424;48.424;11.258;2023-01-28T08:47:13;96213.06;;;4.15;69.95
25526;BME280;13424;48.424;11.258;2023-01-28T08:49:39;96220.44;;;3.75;70.94
25526;BME280;13424;48.424;11.258;2023-01-28T08:52:05;96218.63;;;4.05;70.64
25526;BME280;13424;48.424;11.258;2023-01-28T08:54:37;96222.06;;;4.06;71.01
25526;BME280;13424;48.424;11.258;2023-01-28T08:57:03;96226.69;;;4.18;71.16
25526;BME280;13424;48.424;11.258;2023-01-28T08:59:28;96220.44;;;4.19;70.03
25526;BME280;13424;48.424;11.258;2023-01-28T09:01:54;96220.63;;;4.03;70.64
25526;BME280;13424;48.424;11.258;2023-01-28T09:04:20;96227.44;;;4.12;71.01
25526;BME280;13424;48.424;11.258;2023-01-28T09:06:46;96228.81;;;3.79;71.36
25526;BME280;13424;48.424;11.258;2023-01-28T09:09:12;96226.44;;;3.84;70.65
25526;BME280;13424;48.424;11.258;2023-01-28T09:11:39;96226.81;;;3.96;70.47
25526;BME280;13424;48.424;11.258;2023-01-28T09:14:07;96235.28;;;3.91;70.10
25526;BME280;13424;48.424;11.258;2023-01-28T09:16:33;96230.22;;;3.37;72.03
25526;BME280;13424;48.424;11.258;2023-01-28T09:19:00;96221.44;;;3.59;71.63
25526;BME280;13424;48.424;11.258;2023-01-28T09:21:26;96226.09;;;3.72;70.87
25526;BME280;13424;48.424;11.258;2023-01-28T09:23:52;96224.91;;;3.75;71.13
25526;BME280;13424;48.424;11.258;2023-01-28T09:26:20;96232.63;;;3.76;71.22
25526;BME280;13424;48.424;11.258;2023-01-28T09:28:46;96239.09;;;3.74;70.81
25526;BME280;13424;48.424;11.258;2023-01-28T09:31:12;96232.53;;;3.70;71.07
25526;BME280;13424;48.424;11.258;2023-01-28T09:33:39;96239.28;;;3.87;70.45
25526;BME280;13424;48.424;11.258;2023-01-28T09:36:07;96241.09;;;4.01;70.30
25526;BME280;13424;48.424;11.258;2023-01-28T09:38:35;96238.09;;;4.19;70.12
25526;BME280;13424;48.424;11.258;2023-01-28T09:41:02;96245.56;;;4.15;69.58
25526;BME280;13424;48.424;11.258;2023-01-28T09:44:04;96241.19;;;3.93;70.54
25526;BME280;13424;48.424;11.258;2023-01-28T09:46:34;96246.19;;;4.17;70.05
25526;BME280;13424;48.424;11.258;2023-01-28T09:49:18;96244.34;;;4.18;71.22
25526;BME280;13424;48.424;11.258;2023-01-28T09:51:52;96244.66;;;4.59;68.22
25526;BME280;13424;48.424;11.258;2023-01-28T09:54:49;96245.84;;;4.20;69.21
25526;BME280;13424;48.424;11.258;2023-01-28T09:57:36;96258.63;;;4.53;69.37
25526;BME280;13424;48.424;11.258;2023-01-28T10:00:14;96251.94;;;4.57;69.23
25526;BME280;13424;48.424;11.258;2023-01-28T10:03:27;96256.50;;;4.63;68.40
25526;BME280;13424;48.424;11.258;2023-01-28T10:06:18;96252.31;;;4.54;69.08
25526;BME280;13424;48.424;11.258;2023-01-28T10:21:38;96233.56;;;4.49;69.29
25526;BME280;13424;48.424;11.258;2023-01-28T10:24:30;96228.53;;;4.54;69.12
25526;BME280;13424;48.424;11.258;2023-01-28T10:26:56;96228.94;;;4.72;69.06
25526;BME280;13424;48.424;11.258;2023-01-28T10:29:28;96229.91;;;4.86;68.45
25526;BME280;13424;48.424;11.258;2023-01-28T10:32:11;96222.97;;;4.85;68.00
25526;BME280;13424;48.424;11.258;2023-01-28T10:34:40;96227.50;;;5.13;66.15
25526;BME280;13424;48.424;11.258;2023-01-28T10:37:07;96231.50;;;4.44;68.42
25526;BME280;13424;48.424;11.258;2023-01-28T10:39:33;96229.09;;;4.86;66.96
25526;BME280;13424;48.424;11.258;2023-01-28T10:41:59;96232.19;;;4.53;67.77
25526;BME280;13424;48.424;11.258;2023-01-28T10:44:37;96231.03;;;4.41;69.52
25526;BME280;13424;48.424;11.258;2023-01-28T10:47:19;96231.91;;;4.48;68.29
25526;BME280;13424;48.424;11.258;2023-01-28T10:49:52;96230.78;;;4.93;66.69
25526;BME280;13424;48.424;11.258;2023-01-28T10:52:19;96235.34;;;4.63;67.58
25526;BME280;13424;48.424;11.258;2023-01-28T10:54:45;96233.97;;;4.89;67.07
25526;BME280;13424;48.424;11.258;2023-01-28T10:57:13;96234.31;;;4.43;68.49
25526;BME280;13424;48.424;11.258;2023-01-28T10:59:41;96243.97;;;4.72;68.26
25526;BME280;13424;48.424;11.258;2023-01-28T11:02:32;96238.72;;;4.36;69.39
25526;BME280;13424;48.424;11.258;2023-01-28T11:05:15;96239.84;;;4.48;67.63
25526;BME280;13424;48.424;11.258;2023-01-28T11:07:46;96232.66;;;4.78;67.38
25526;BME280;13424;48.424;11.258;2023-01-28T11:10:27;96247.28;;;4.74;68.22
25526;BME280;13424;48.424;11.258;2023-01-28T11:12:55;96240.41;;;4.80;67.89
25526;BME280;13424;48.424;11.258;2023-01-28T11:15:21;96235.97;;;4.44;69.44
25526;BME280;13424;48.424;11.258;2023-01-28T11:17:51;96235.38;;;5.06;66.81
25526;BME280;13424;48.424;11.258;2023-01-28T11:20:23;96237.84;;;5.08;67.80
25526;BME280;13424;48.424;11.258;2023-01-28T11:22:50;96236.25;;;4.92;67.41
25526;BME280;13424;48.424;11.258;2023-01-28T11:25:33;96240.16;;;4.74;67.42
25526;BME280;13424;48.424;11.258;2023-01-28T11:28:02;96237.41;;;4.83;67.23
25526;BME280;13424;48.424;11.258;2023-01-28T11:30:37;96233.75;;;4.47;69.73
25526;BME280;13424;48.424;11.258;2023-01-28T11:33:23;96233.50;;;5.00;67.96
25526;BME280;13424;48.424;11.258;2023-01-28T11:36:06;96235.06;;;5.16;66.96
25526;BME280;13424;48.424;11.258;2023-01-28T11:38:33;96225.03;;;5.32;66.94
25526;BME280;13424;48.424;11.258;2023-01-28T11:40:59;96228.88;;;5.58;66.00
25526;BME280;13424;48.424;11.258;2023-01-28T11:43:30;96224.44;;;5.65;66.03
25526;BME280;13424;48.424;11.258;2023-01-28T11:52:26;96231.69;;;4.64;68.50
25526;BME280;13424;48.424;11.258;2023-01-28T11:55:48;96235.63;;;5.11;67.82
25526;BME280;13424;48.424;11.258;2023-01-28T11:58:33;96235.28;;;3.91;71.30
25526;BME280;13424;48.424;11.258;2023-01-28T12:01:20;96232.34;;;4.88;67.77
25526;BME280;13424;48.424;11.258;2023-01-28T12:09:39;96231.09;;;5.05;67.41
25526;BME280;13424;48.424;11.258;2023-01-28T12:15:43;96230.59;;;4.95;67.46
25526;BME280;13424;48.424;11.258;2023-01-28T12:21:06;96227.69;;;4.68;69.15
25526;BME280;13424;48.424;11.258;2023-01-28T12:26:40;96223.59;;;5.30;67.93
25526;BME280;13424;48.424;11.258;2023-01-28T12:29:51;96225.91;;;5.40;66.92
25526;BME280;13424;48.424;11.258;2023-01-28T12:32:51;96223.28;;;5.18;64.95
25526;BME280;13424;48.424;11.258;2023-01-28T12:35:52;96222.66;;;4.95;65.18
25526;BME280;13424;48.424;11.258;2023-01-28T12:41:26;96225.09;;;5.18;65.94
25526;BME280;13424;48.424;11.258;2023-01-28T12:44:05;96226.63;;;4.84;67.05
25526;BME280;13424;48.424;11.258;2023-01-28T12:46:46;96218.53;;;5.35;65.89
25526;BME280;13424;48.424;11.258;2023-01-28T12:53:45;96221.69;;;5.52;65.48
25526;BME280;13424;48.424;11.258;2023-01-28T12:56:16;96221.53;;;5.04;66.30
25526;BME280;13424;48.424;11.258;2023-01-28T12:59:11;96218.59;;;5.20;66.86
25526;BME280;13424;48.424;11.258;2023-01-28T13:05:07;96213.72;;;5.17;66.62
25526;BME280;13424;48.424;11.258;2023-01-28T13:08:09;96215.81;;;5.00;66.85
25526;BME280;13424;48.424;11.258;2023-01-28T13:10:42;96227.25;;;5.08;66.33
25526;BME280;13424;48.424;11.258;2023-01-28T13:13:28;96222.78;;;5.08;66.60
25526;BME280;13424;48.424;11.258;2023-01-28T13:15:55;96225.91;;;5.18;66.80
25526;BME280;13424;48.424;11.258;2023-01-28T13:23:47;96234.78;;;5.32;66.96
25526;BME280;13424;48.424;11.258;2023-01-28T13:28:50;96242.72;;;4.68;67.63
25526;BME280;13424;48.424;11.258;2023-01-28T13:31:20;96236.75;;;4.81;68.38
25526;BME280;13424;48.424;11.258;2023-01-28T13:36:44;96242.75;;;4.53;69.26
25526;BME280;13424;48.424;11.258;2023-01-28T13:39:20;96238.25;;;4.68;69.42
25526;BME280;13424;48.424;11.258;2023-01-28T13:41:50;96244.28;;;4.62;70.70
25526;BME280;13424;48.424;11.258;2023-01-28T13:44:31;96241.25;;;4.29;71.63
25526;BME280;13424;48.424;11.258;2023-01-28T13:49:39;96254.88;;;4.47;71.26
25526;BME280;13424;48.424;11.258;2023-01-28T13:52:31;96255.00;;;4.75;71.04
25526;BME280;13424;48.424;11.258;2023-01-28T13:55:17;96251.88;;;5.08;69.85
25526;BME280;13424;48.424;11.258;2023-01-28T13:58:19;96248.75;;;4.98;70.07
25526;BME280;13424;48.424;11.258;2023-01-28T14:01:23;96251.13;;;4.57;71.89
25526;BME280;13424;48.424;11.258;2023-01-28T14:10:10;96262.56;;;4.42;72.21
25526;BME280;13424;48.424;11.258;2023-01-28T14:13:19;96253.69;;;4.50;72.40
25526;BME280;13424;48.424;11.258;2023-01-28T14:18:43;96262.44;;;4.87;70.73
25526;BME280;13424;48.424;11.258;2023-01-28T14:21:18;96270.03;;;4.39;72.79
25526;BME280;13424;48.424;11.258;2023-01-28T14:23:54;96268.59;;;4.58;71.15
25526;BME280;13424;48.424;11.258;2023-01-28T14:32:15;96277.34;;;4.07;73.32
25526;BME280;13424;48.424;11.258;2023-01-28T14:34:42;96280.88;;;4.29;72.87
25526;BME280;13424;48.424;11.258;2023-01-28T14:37:15;96280.69;;;4.16;73.40
25526;BME280;13424;48.424;11.258;2023-01-28T14:39:47;96274.41;;;4.32;72.67
25526;BME280;13424;48.424;11.258;2023-01-28T14:42:31;96276.84;;;4.48;71.66
25526;BME280;13424;48.424;11.258;2023-01-28T14:48:23;96290.72;;;4.06;72.03
25526;BME280;13424;48.424;11.258;2023-01-28T14:51:43;96289.19;;;4.11;72.37
25526;BME280;13424;48.424;11.258;2023-01-28T14:57:44;96293.91;;;4.31;72.44
25526;BME280;13424;48.424;11.258;2023-01-28T15:00:24;96297.72;;;4.13;73.08
25526;BME280;13424;48.424;11.258;2023-01-28T15:02:50;96289.34;;;4.25;71.54
25526;BME280;13424;48.424;11.258;2023-01-28T15:05:23;96290.81;;;4.12;71.99
25526;BME280;13424;48.424;11.258;2023-01-28T15:07:49;96290.44;;;4.30;71.91
25526;BME280;13424;48.424;11.258;2023-01-28T15:10:16;96298.06;;;4.10;71.60
25526;BME280;13424;48.424;11.258;2023-01-28T15:12:56;96303.53;;;4.24;72.08
25526;BME280;13424;48.424;11.258;2023-01-28T15:15:38;96300.97;;;3.86;73.40
25526;BME280;13424;48.424;11.258;2023-01-28T15:18:13;96308.63;;;4.40;71.86
25526;BME280;13424;48.424;11.258;2023-01-28T15:20:44;96307.44;;;3.83;74.11
25526;BME280;13424;48.424;11.258;2023-01-28T15:23:14;96313.47;;;4.22;72.69
25526;BME280;13424;48.424;11.258;2023-01-28T15:25:41;96305.56;;;4.22;72.94
25526;BME280;13424;48.424;11.258;2023-01-28T15:28:15;96312.28;;;4.09;73.67
25526;BME280;13424;48.424;11.258;2023-01-28T15:30:44;96317.97;;;3.69;74.28
25526;BME280;13424;48.424;11.258;2023-01-28T15:33:15;96317.91;;;3.91;74.55
25526;BME280;13424;48.424;11.258;2023-01-28T15:35:55;96318.03;;;4.13;73.73
25526;BME280;13424;48.424;11.258;2023-01-28T15:38:22;96320.22;;;4.24;73.37